sensor_id;sensor_type;location;lat;lon;timestamp;P1;durP1;ratioP1;P2;durP2;ratioP2
16626;SDS011;8427;52.204;7.202;2023-12-22T00:01:57;18.80;;;1.73;;
16626;SDS011;8427;52.204;7.202;2023-12-22T00:04:25;21.23;;;1.95;;
16626;SDS011;8427;52.204;7.202;2023-12-22T00:06:54;23.02;;;1.90;;
16626;SDS011;8427;52.204;7.202;2023-12-22T00:09:22;15.73;;;1.65;;
16626;SDS011;8427;52.204;7.202;2023-12-22T00:11:50;11.55;;;2.00;;
16626;SDS011;8427;52.204;7.202;2023-12-22T00:14:18;16.13;;;1.75;;
16626;SDS011;8427;52.204;7.202;2023-12-22T00:16:46;16.35;;;1.80;;
16626;SDS011;8427;52.204;7.202;2023-12-22T00:19:14;23.92;;;2.67;;
16626;SDS011;8427;52.204;7.202;2023-12-22T00:21:42;16.05;;;1.48;;
16626;SDS011;8427;52.204;7.202;2023-12-22T00:24:12;15.27;;;1.75;;
16626;SDS011;8427;52.204;7.202;2023-12-22T00:26:40;17.35;;;1.92;;
16626;SDS011;8427;52.204;7.202;2023-12-22T00:29:08;23.42;;;1.98;;
16626;SDS011;8427;52.204;7.202;2023-12-22T00:31:36;22.05;;;1.73;;
16626;SDS011;8427;52.204;7.202;2023-12-22T00:34:05;20.13;;;2.05;;
16626;SDS011;8427;52.204;7.202;2023-12-22T00:36:33;15.45;;;1.70;;
16626;SDS011;8427;52.204;7.202;2023-12-22T00:39:01;18.27;;;1.75;;
16626;SDS011;8427;52.204;7.202;2023-12-22T00:41:30;20.67;;;1.80;;
16626;SDS011;8427;52.204;7.202;2023-12-22T00:43:58;17.60;;;1.80;;
16626;SDS011;8427;52.204;7.202;2023-12-22T00:46:26;14.15;;;2.03;;
16626;SDS011;8427;52.204;7.202;2023-12-22T00:48:54;15.73;;;1.55;;
16626;SDS011;8427;52.204;7.202;2023-12-22T00:51:23;15.32;;;1.55;;
16626;SDS011;8427;52.204;7.202;2023-12-22T00:53:51;18.02;;;1.50;;
16626;SDS011;8427;52.204;7.202;2023-12-22T00:56:19;17.73;;;1.48;;
16626;SDS011;8427;52.204;7.202;2023-12-22T00:58:48;14.68;;;1.40;;
16626;SDS011;8427;52.204;7.202;2023-12-22T01:01:27;19.90;;;1.55;;
16626;SDS011;8427;52.204;7.202;2023-12-22T01:03:55;24.00;;;3.08;;
16626;SDS011;8427;52.204;7.202;2023-12-22T01:06:23;19.17;;;1.85;;
16626;SDS011;8427;52.204;7.202;2023-12-22T01:08:55;17.27;;;1.48;;
16626;SDS011;8427;52.204;7.202;2023-12-22T01:11:23;11.20;;;1.38;;
16626;SDS011;8427;52.204;7.202;2023-12-22T01:13:53;18.02;;;2.03;;
16626;SDS011;8427;52.204;7.202;2023-12-22T01:18:50;12.50;;;1.27;;
16626;SDS011;8427;52.204;7.202;2023-12-22T01:21:18;14.73;;;1.48;;
16626;SDS011;8427;52.204;7.202;2023-12-22T01:23:46;14.60;;;1.55;;
16626;SDS011;8427;52.204;7.202;2023-12-22T01:26:14;13.45;;;1.52;;
16626;SDS011;8427;52.204;7.202;2023-12-22T01:28:42;16.85;;;1.40;;
16626;SDS011;8427;52.204;7.202;2023-12-22T01:31:12;17.40;;;1.48;;
16626;SDS011;8427;52.204;7.202;2023-12-22T01:33:40;16.00;;;1.50;;
16626;SDS011;8427;52.204;7.202;2023-12-22T01:36:08;9.70;;;1.40;;
16626;SDS011;8427;52.204;7.202;2023-12-22T01:38:36;10.40;;;1.17;;
16626;SDS011;8427;52.204;7.202;2023-12-22T01:41:04;12.65;;;1.50;;
16626;SDS011;8427;52.204;7.202;2023-12-22T01:43:32;11.20;;;1.48;;
16626;SDS011;8427;52.204;7.202;2023-12-22T01:46:00;11.98;;;1.25;;
16626;SDS011;8427;52.204;7.202;2023-12-22T01:48:30;15.63;;;1.30;;
16626;SDS011;8427;52.204;7.202;2023-12-22T01:50:59;14.45;;;1.92;;
16626;SDS011;8427;52.204;7.202;2023-12-22T01:55:57;16.10;;;1.70;;
16626;SDS011;8427;52.204;7.202;2023-12-22T01:58:26;14.82;;;1.83;;
16626;SDS011;8427;52.204;7.202;2023-12-22T02:00:56;15.35;;;1.33;;
16626;SDS011;8427;52.204;7.202;2023-12-22T02:03:24;13.18;;;1.20;;
16626;SDS011;8427;52.204;7.202;2023-12-22T02:05:56;13.25;;;1.20;;
16626;SDS011;8427;52.204;7.202;2023-12-22T02:08:24;18.42;;;1.70;;
16626;SDS011;8427;52.204;7.202;2023-12-22T02:10:55;13.18;;;1.30;;
16626;SDS011;8427;52.204;7.202;2023-12-22T02:13:23;13.30;;;1.30;;
16626;SDS011;8427;52.204;7.202;2023-12-22T02:15:57;15.90;;;1.52;;
16626;SDS011;8427;52.204;7.202;2023-12-22T02:18:33;17.55;;;1.55;;
16626;SDS011;8427;52.204;7.202;2023-12-22T02:21:04;14.30;;;1.15;;
16626;SDS011;8427;52.204;7.202;2023-12-22T02:23:33;14.13;;;1.35;;
16626;SDS011;8427;52.204;7.202;2023-12-22T02:26:04;15.52;;;1.35;;
16626;SDS011;8427;52.204;7.202;2023-12-22T02:28:35;15.80;;;1.83;;
16626;SDS011;8427;52.204;7.202;2023-12-22T02:31:07;13.48;;;1.70;;
16626;SDS011;8427;52.204;7.202;2023-12-22T02:33:43;16.55;;;1.27;;
16626;SDS011;8427;52.204;7.202;2023-12-22T02:36:13;9.13;;;1.35;;
16626;SDS011;8427;52.204;7.202;2023-12-22T02:38:45;14.18;;;1.30;;
16626;SDS011;8427;52.204;7.202;2023-12-22T02:41:15;12.98;;;1.50;;
16626;SDS011;8427;52.204;7.202;2023-12-22T02:43:43;8.85;;;1.10;;
16626;SDS011;8427;52.204;7.202;2023-12-22T02:46:12;13.33;;;1.20;;
16626;SDS011;8427;52.204;7.202;2023-12-22T02:51:09;11.00;;;1.00;;
16626;SDS011;8427;52.204;7.202;2023-12-22T02:53:37;10.10;;;0.90;;
16626;SDS011;8427;52.204;7.202;2023-12-22T02:56:07;10.30;;;0.98;;
16626;SDS011;8427;52.204;7.202;2023-12-22T03:01:03;10.80;;;0.80;;
16626;SDS011;8427;52.204;7.202;2023-12-22T03:03:31;6.95;;;0.70;;
16626;SDS011;8427;52.204;7.202;2023-12-22T03:05:59;8.88;;;0.80;;
16626;SDS011;8427;52.204;7.202;2023-12-22T03:08:27;4.53;;;0.70;;
16626;SDS011;8427;52.204;7.202;2023-12-22T03:10:55;5.75;;;0.80;;
16626;SDS011;8427;52.204;7.202;2023-12-22T03:13:24;4.85;;;0.60;;
16626;SDS011;8427;52.204;7.202;2023-12-22T03:15:53;10.18;;;0.82;;
16626;SDS011;8427;52.204;7.202;2023-12-22T03:18:21;5.00;;;0.60;;
16626;SDS011;8427;52.204;7.202;2023-12-22T03:20:48;4.03;;;0.70;;
16626;SDS011;8427;52.204;7.202;2023-12-22T03:23:16;7.95;;;0.68;;
16626;SDS011;8427;52.204;7.202;2023-12-22T03:25:44;5.95;;;0.50;;
16626;SDS011;8427;52.204;7.202;2023-12-22T03:28:12;6.85;;;0.93;;
16626;SDS011;8427;52.204;7.202;2023-12-22T03:30:41;5.60;;;0.55;;
16626;SDS011;8427;52.204;7.202;2023-12-22T03:33:09;6.38;;;0.70;;
16626;SDS011;8427;52.204;7.202;2023-12-22T03:35:38;6.90;;;0.52;;
16626;SDS011;8427;52.204;7.202;2023-12-22T03:38:05;3.63;;;0.55;;
16626;SDS011;8427;52.204;7.202;2023-12-22T03:40:34;5.40;;;0.47;;
16626;SDS011;8427;52.204;7.202;2023-12-22T03:43:02;3.85;;;0.40;;
16626;SDS011;8427;52.204;7.202;2023-12-22T03:45:30;5.80;;;0.50;;
16626;SDS011;8427;52.204;7.202;2023-12-22T03:48:00;4.10;;;0.50;;
16626;SDS011;8427;52.204;7.202;2023-12-22T03:50:28;4.70;;;0.40;;
16626;SDS011;8427;52.204;7.202;2023-12-22T03:52:55;6.20;;;0.55;;
16626;SDS011;8427;52.204;7.202;2023-12-22T03:55:24;7.88;;;0.57;;
16626;SDS011;8427;52.204;7.202;2023-12-22T03:57:52;7.00;;;0.70;;
16626;SDS011;8427;52.204;7.202;2023-12-22T04:00:20;10.63;;;1.02;;
16626;SDS011;8427;52.204;7.202;2023-12-22T04:02:48;5.70;;;0.73;;
16626;SDS011;8427;52.204;7.202;2023-12-22T04:05:17;6.57;;;0.60;;
16626;SDS011;8427;52.204;7.202;2023-12-22T04:07:45;5.32;;;0.68;;
16626;SDS011;8427;52.204;7.202;2023-12-22T04:10:15;7.00;;;0.82;;
16626;SDS011;8427;52.204;7.202;2023-12-22T04:12:43;7.32;;;0.90;;
16626;SDS011;8427;52.204;7.202;2023-12-22T04:15:11;10.50;;;0.70;;
16626;SDS011;8427;52.204;7.202;2023-12-22T04:17:40;8.87;;;0.97;;
16626;SDS011;8427;52.204;7.202;2023-12-22T04:20:08;5.45;;;0.63;;
16626;SDS011;8427;52.204;7.202;2023-12-22T04:22:37;10.82;;;0.80;;
16626;SDS011;8427;52.204;7.202;2023-12-22T04:25:06;10.30;;;1.02;;
16626;SDS011;8427;52.204;7.202;2023-12-22T04:27:35;11.23;;;0.90;;
16626;SDS011;8427;52.204;7.202;2023-12-22T04:30:03;6.47;;;0.80;;
16626;SDS011;8427;52.204;7.202;2023-12-22T04:32:32;6.63;;;0.80;;
16626;SDS011;8427;52.204;7.202;2023-12-22T04:35:00;13.13;;;0.90;;
16626;SDS011;8427;52.204;7.202;2023-12-22T04:37:28;7.50;;;0.80;;
16626;SDS011;8427;52.204;7.202;2023-12-22T04:39:57;7.07;;;0.85;;
16626;SDS011;8427;52.204;7.202;2023-12-22T04:42:25;6.38;;;0.60;;
16626;SDS011;8427;52.204;7.202;2023-12-22T04:44:53;11.80;;;1.10;;
16626;SDS011;8427;52.204;7.202;2023-12-22T04:47:21;8.35;;;1.00;;
16626;SDS011;8427;52.204;7.202;2023-12-22T04:49:50;9.20;;;0.75;;
16626;SDS011;8427;52.204;7.202;2023-12-22T04:52:18;11.48;;;1.05;;
16626;SDS011;8427;52.204;7.202;2023-12-22T04:54:46;5.78;;;1.00;;
16626;SDS011;8427;52.204;7.202;2023-12-22T04:57:16;6.20;;;0.90;;
16626;SDS011;8427;52.204;7.202;2023-12-22T04:59:44;11.48;;;1.30;;
16626;SDS011;8427;52.204;7.202;2023-12-22T05:02:12;11.60;;;1.10;;
16626;SDS011;8427;52.204;7.202;2023-12-22T05:04:40;6.10;;;0.93;;
16626;SDS011;8427;52.204;7.202;2023-12-22T05:07:08;14.00;;;1.40;;
16626;SDS011;8427;52.204;7.202;2023-12-22T05:09:37;12.05;;;0.98;;
16626;SDS011;8427;52.204;7.202;2023-12-22T05:12:05;8.27;;;1.40;;
16626;SDS011;8427;52.204;7.202;2023-12-22T05:14:35;9.98;;;1.10;;
16626;SDS011;8427;52.204;7.202;2023-12-22T05:17:03;12.88;;;1.10;;
16626;SDS011;8427;52.204;7.202;2023-12-22T05:19:31;12.80;;;1.13;;
16626;SDS011;8427;52.204;7.202;2023-12-22T05:22:00;12.80;;;1.20;;
16626;SDS011;8427;52.204;7.202;2023-12-22T05:24:28;14.27;;;1.80;;
16626;SDS011;8427;52.204;7.202;2023-12-22T05:26:56;11.00;;;1.15;;
16626;SDS011;8427;52.204;7.202;2023-12-22T05:29:24;11.90;;;1.67;;
16626;SDS011;8427;52.204;7.202;2023-12-22T05:31:53;15.98;;;1.45;;
16626;SDS011;8427;52.204;7.202;2023-12-22T05:36:50;12.02;;;0.95;;
16626;SDS011;8427;52.204;7.202;2023-12-22T05:39:18;10.15;;;1.30;;
16626;SDS011;8427;52.204;7.202;2023-12-22T05:41:46;12.60;;;1.27;;
16626;SDS011;8427;52.204;7.202;2023-12-22T05:44:14;11.65;;;1.67;;
16626;SDS011;8427;52.204;7.202;2023-12-22T05:46:42;11.02;;;1.20;;
16626;SDS011;8427;52.204;7.202;2023-12-22T05:49:12;14.13;;;1.42;;
16626;SDS011;8427;52.204;7.202;2023-12-22T05:51:41;16.08;;;1.17;;
16626;SDS011;8427;52.204;7.202;2023-12-22T05:54:09;15.90;;;1.30;;
16626;SDS011;8427;52.204;7.202;2023-12-22T05:56:37;14.05;;;1.38;;
16626;SDS011;8427;52.204;7.202;2023-12-22T05:59:05;13.60;;;1.27;;
16626;SDS011;8427;52.204;7.202;2023-12-22T06:01:33;12.85;;;1.15;;
16626;SDS011;8427;52.204;7.202;2023-12-22T06:04:02;11.50;;;1.13;;
16626;SDS011;8427;52.204;7.202;2023-12-22T06:06:33;13.88;;;1.35;;
16626;SDS011;8427;52.204;7.202;2023-12-22T06:09:04;13.15;;;1.58;;
16626;SDS011;8427;52.204;7.202;2023-12-22T06:11:32;11.50;;;1.10;;
16626;SDS011;8427;52.204;7.202;2023-12-22T06:14:01;11.15;;;1.00;;
16626;SDS011;8427;52.204;7.202;2023-12-22T06:16:29;8.98;;;1.15;;
16626;SDS011;8427;52.204;7.202;2023-12-22T06:18:57;12.50;;;1.23;;
16626;SDS011;8427;52.204;7.202;2023-12-22T06:21:25;10.30;;;1.40;;
16626;SDS011;8427;52.204;7.202;2023-12-22T06:23:55;13.07;;;1.42;;
16626;SDS011;8427;52.204;7.202;2023-12-22T06:26:23;15.40;;;1.30;;
16626;SDS011;8427;52.204;7.202;2023-12-22T06:28:51;11.02;;;1.23;;
16626;SDS011;8427;52.204;7.202;2023-12-22T06:31:19;16.45;;;1.40;;
16626;SDS011;8427;52.204;7.202;2023-12-22T06:36:20;16.83;;;1.70;;
16626;SDS011;8427;52.204;7.202;2023-12-22T06:38:49;16.40;;;1.20;;
16626;SDS011;8427;52.204;7.202;2023-12-22T06:41:20;18.33;;;1.43;;
16626;SDS011;8427;52.204;7.202;2023-12-22T06:43:53;11.32;;;1.20;;
16626;SDS011;8427;52.204;7.202;2023-12-22T06:46:22;9.73;;;1.47;;
16626;SDS011;8427;52.204;7.202;2023-12-22T06:48:53;16.08;;;1.50;;
16626;SDS011;8427;52.204;7.202;2023-12-22T06:51:22;15.65;;;1.55;;
16626;SDS011;8427;52.204;7.202;2023-12-22T06:53:50;17.50;;;1.50;;
16626;SDS011;8427;52.204;7.202;2023-12-22T06:56:21;10.02;;;1.27;;
16626;SDS011;8427;52.204;7.202;2023-12-22T06:58:50;16.35;;;1.73;;
16626;SDS011;8427;52.204;7.202;2023-12-22T07:01:19;11.35;;;1.63;;
16626;SDS011;8427;52.204;7.202;2023-12-22T07:03:48;17.05;;;1.40;;
16626;SDS011;8427;52.204;7.202;2023-12-22T07:06:17;14.25;;;1.50;;
16626;SDS011;8427;52.204;7.202;2023-12-22T07:08:56;14.70;;;1.40;;
16626;SDS011;8427;52.204;7.202;2023-12-22T07:11:41;15.10;;;1.52;;
16626;SDS011;8427;52.204;7.202;2023-12-22T07:14:10;16.20;;;1.48;;
16626;SDS011;8427;52.204;7.202;2023-12-22T07:16:38;9.80;;;1.30;;
16626;SDS011;8427;52.204;7.202;2023-12-22T07:19:06;13.23;;;1.27;;
16626;SDS011;8427;52.204;7.202;2023-12-22T07:21:35;15.95;;;1.50;;
16626;SDS011;8427;52.204;7.202;2023-12-22T07:24:03;14.77;;;1.65;;
16626;SDS011;8427;52.204;7.202;2023-12-22T07:26:32;9.95;;;1.50;;
16626;SDS011;8427;52.204;7.202;2023-12-22T07:29:01;13.48;;;1.38;;
16626;SDS011;8427;52.204;7.202;2023-12-22T07:31:29;12.63;;;1.65;;
16626;SDS011;8427;52.204;7.202;2023-12-22T07:33:57;12.30;;;1.35;;
16626;SDS011;8427;52.204;7.202;2023-12-22T07:36:25;10.30;;;1.10;;
16626;SDS011;8427;52.204;7.202;2023-12-22T07:38:54;12.77;;;1.15;;
16626;SDS011;8427;52.204;7.202;2023-12-22T07:41:23;8.93;;;1.40;;
16626;SDS011;8427;52.204;7.202;2023-12-22T07:43:52;13.10;;;1.40;;
16626;SDS011;8427;52.204;7.202;2023-12-22T07:46:21;12.13;;;1.73;;
16626;SDS011;8427;52.204;7.202;2023-12-22T07:48:50;16.80;;;1.42;;
16626;SDS011;8427;52.204;7.202;2023-12-22T07:51:18;18.38;;;1.63;;
16626;SDS011;8427;52.204;7.202;2023-12-22T07:53:47;15.03;;;1.30;;
16626;SDS011;8427;52.204;7.202;2023-12-22T07:56:15;12.82;;;1.17;;
16626;SDS011;8427;52.204;7.202;2023-12-22T07:58:43;11.15;;;1.13;;
16626;SDS011;8427;52.204;7.202;2023-12-22T08:01:11;14.75;;;1.25;;
16626;SDS011;8427;52.204;7.202;2023-12-22T08:03:43;13.20;;;1.60;;
16626;SDS011;8427;52.204;7.202;2023-12-22T08:08:40;15.65;;;1.42;;
16626;SDS011;8427;52.204;7.202;2023-12-22T08:11:08;11.13;;;1.40;;
16626;SDS011;8427;52.204;7.202;2023-12-22T08:13:36;9.48;;;1.33;;
16626;SDS011;8427;52.204;7.202;2023-12-22T08:16:04;9.90;;;1.10;;
16626;SDS011;8427;52.204;7.202;2023-12-22T08:18:33;14.47;;;1.10;;
16626;SDS011;8427;52.204;7.202;2023-12-22T08:21:04;11.40;;;1.17;;
16626;SDS011;8427;52.204;7.202;2023-12-22T08:23:46;6.72;;;0.80;;
16626;SDS011;8427;52.204;7.202;2023-12-22T08:26:21;9.70;;;1.00;;
16626;SDS011;8427;52.204;7.202;2023-12-22T08:28:49;5.95;;;1.00;;
16626;SDS011;8427;52.204;7.202;2023-12-22T08:31:17;6.93;;;0.88;;
16626;SDS011;8427;52.204;7.202;2023-12-22T08:33:46;9.73;;;1.00;;
16626;SDS011;8427;52.204;7.202;2023-12-22T08:36:15;10.25;;;1.17;;
16626;SDS011;8427;52.204;7.202;2023-12-22T08:38:44;9.45;;;1.25;;
16626;SDS011;8427;52.204;7.202;2023-12-22T08:41:12;9.98;;;1.10;;
16626;SDS011;8427;52.204;7.202;2023-12-22T08:43:41;7.10;;;0.95;;
16626;SDS011;8427;52.204;7.202;2023-12-22T08:46:09;8.57;;;1.02;;
16626;SDS011;8427;52.204;7.202;2023-12-22T08:48:38;11.30;;;1.00;;
16626;SDS011;8427;52.204;7.202;2023-12-22T08:51:07;6.85;;;1.02;;
16626;SDS011;8427;52.204;7.202;2023-12-22T08:53:36;6.40;;;0.90;;
16626;SDS011;8427;52.204;7.202;2023-12-22T08:56:04;5.45;;;0.80;;
16626;SDS011;8427;52.204;7.202;2023-12-22T08:58:35;5.80;;;0.95;;
16626;SDS011;8427;52.204;7.202;2023-12-22T09:01:03;12.10;;;1.13;;
16626;SDS011;8427;52.204;7.202;2023-12-22T09:03:32;8.77;;;1.10;;
16626;SDS011;8427;52.204;7.202;2023-12-22T09:06:02;7.95;;;0.80;;
16626;SDS011;8427;52.204;7.202;2023-12-22T09:08:30;4.67;;;0.80;;
16626;SDS011;8427;52.204;7.202;2023-12-22T09:11:00;8.43;;;0.80;;
16626;SDS011;8427;52.204;7.202;2023-12-22T09:13:28;5.47;;;0.70;;
16626;SDS011;8427;52.204;7.202;2023-12-22T09:15:57;5.38;;;0.70;;
16626;SDS011;8427;52.204;7.202;2023-12-22T09:18:25;4.97;;;0.70;;
16626;SDS011;8427;52.204;7.202;2023-12-22T09:20:53;8.27;;;0.80;;
16626;SDS011;8427;52.204;7.202;2023-12-22T09:23:21;5.63;;;0.82;;
16626;SDS011;8427;52.204;7.202;2023-12-22T09:25:49;5.63;;;0.88;;
16626;SDS011;8427;52.204;7.202;2023-12-22T09:28:19;6.28;;;0.70;;
16626;SDS011;8427;52.204;7.202;2023-12-22T09:30:47;3.90;;;0.70;;
16626;SDS011;8427;52.204;7.202;2023-12-22T09:33:15;6.05;;;0.70;;
16626;SDS011;8427;52.204;7.202;2023-12-22T09:35:43;5.03;;;0.70;;
16626;SDS011;8427;52.204;7.202;2023-12-22T09:38:12;5.68;;;0.82;;
16626;SDS011;8427;52.204;7.202;2023-12-22T09:40:40;4.68;;;0.68;;
16626;SDS011;8427;52.204;7.202;2023-12-22T09:43:08;2.95;;;0.60;;
16626;SDS011;8427;52.204;7.202;2023-12-22T09:45:40;6.50;;;0.73;;
16626;SDS011;8427;52.204;7.202;2023-12-22T09:48:09;7.70;;;0.80;;
16626;SDS011;8427;52.204;7.202;2023-12-22T09:50:43;5.22;;;0.80;;
16626;SDS011;8427;52.204;7.202;2023-12-22T09:53:12;6.10;;;0.73;;
16626;SDS011;8427;52.204;7.202;2023-12-22T10:00:39;8.63;;;0.85;;
16626;SDS011;8427;52.204;7.202;2023-12-22T10:03:10;5.82;;;1.00;;
16626;SDS011;8427;52.204;7.202;2023-12-22T10:05:39;7.65;;;1.58;;
16626;SDS011;8427;52.204;7.202;2023-12-22T10:08:08;6.68;;;0.90;;
16626;SDS011;8427;52.204;7.202;2023-12-22T10:10:38;6.43;;;1.70;;
16626;SDS011;8427;52.204;7.202;2023-12-22T10:15:36;34.65;;;9.55;;
16626;SDS011;8427;52.204;7.202;2023-12-22T10:18:08;8.68;;;2.58;;
16626;SDS011;8427;52.204;7.202;2023-12-22T10:20:37;7.25;;;1.38;;
16626;SDS011;8427;52.204;7.202;2023-12-22T10:23:05;10.32;;;1.40;;
16626;SDS011;8427;52.204;7.202;2023-12-22T10:25:33;6.35;;;1.33;;
16626;SDS011;8427;52.204;7.202;2023-12-22T10:28:02;12.85;;;1.63;;
16626;SDS011;8427;52.204;7.202;2023-12-22T10:30:30;6.05;;;1.30;;
16626;SDS011;8427;52.204;7.202;2023-12-22T10:32:59;9.18;;;1.40;;
16626;SDS011;8427;52.204;7.202;2023-12-22T10:35:32;8.80;;;1.05;;
16626;SDS011;8427;52.204;7.202;2023-12-22T10:38:01;11.05;;;1.50;;
16626;SDS011;8427;52.204;7.202;2023-12-22T10:40:30;10.95;;;1.80;;
16626;SDS011;8427;52.204;7.202;2023-12-22T10:42:58;10.38;;;2.13;;
16626;SDS011;8427;52.204;7.202;2023-12-22T10:45:26;9.90;;;1.97;;
16626;SDS011;8427;52.204;7.202;2023-12-22T10:47:57;6.32;;;1.20;;
16626;SDS011;8427;52.204;7.202;2023-12-22T10:50:26;3.95;;;1.05;;
16626;SDS011;8427;52.204;7.202;2023-12-22T10:52:57;6.18;;;1.17;;
16626;SDS011;8427;52.204;7.202;2023-12-22T10:55:25;9.18;;;1.00;;
16626;SDS011;8427;52.204;7.202;2023-12-22T10:57:53;6.80;;;0.90;;
16626;SDS011;8427;52.204;7.202;2023-12-22T11:00:21;4.53;;;0.60;;
16626;SDS011;8427;52.204;7.202;2023-12-22T11:02:50;5.90;;;0.73;;
16626;SDS011;8427;52.204;7.202;2023-12-22T11:05:26;5.20;;;0.80;;
16626;SDS011;8427;52.204;7.202;2023-12-22T11:07:57;4.70;;;0.75;;
16626;SDS011;8427;52.204;7.202;2023-12-22T11:10:30;6.45;;;1.40;;
16626;SDS011;8427;52.204;7.202;2023-12-22T11:12:59;4.68;;;0.77;;
16626;SDS011;8427;52.204;7.202;2023-12-22T11:15:27;4.82;;;0.60;;
16626;SDS011;8427;52.204;7.202;2023-12-22T11:20:26;3.08;;;0.80;;
16626;SDS011;8427;52.204;7.202;2023-12-22T11:23:00;2.78;;;0.50;;
16626;SDS011;8427;52.204;7.202;2023-12-22T11:25:29;3.38;;;0.77;;
16626;SDS011;8427;52.204;7.202;2023-12-22T11:27:59;3.00;;;0.60;;
16626;SDS011;8427;52.204;7.202;2023-12-22T11:30:27;2.03;;;1.02;;
16626;SDS011;8427;52.204;7.202;2023-12-22T11:32:57;3.95;;;1.52;;
16626;SDS011;8427;52.204;7.202;2023-12-22T11:38:01;3.00;;;0.60;;
16626;SDS011;8427;52.204;7.202;2023-12-22T11:40:30;2.03;;;0.50;;
16626;SDS011;8427;52.204;7.202;2023-12-22T11:42:58;4.80;;;0.70;;
16626;SDS011;8427;52.204;7.202;2023-12-22T11:45:30;1.90;;;0.50;;
16626;SDS011;8427;52.204;7.202;2023-12-22T11:48:04;2.05;;;0.50;;
16626;SDS011;8427;52.204;7.202;2023-12-22T11:50:34;2.05;;;0.35;;
16626;SDS011;8427;52.204;7.202;2023-12-22T11:53:18;0.68;;;0.40;;
16626;SDS011;8427;52.204;7.202;2023-12-22T11:55:57;1.05;;;0.40;;
16626;SDS011;8427;52.204;7.202;2023-12-22T11:58:32;1.25;;;0.30;;
16626;SDS011;8427;52.204;7.202;2023-12-22T12:01:07;4.32;;;0.45;;
16626;SDS011;8427;52.204;7.202;2023-12-22T12:03:37;1.90;;;0.35;;
16626;SDS011;8427;52.204;7.202;2023-12-22T12:06:14;0.47;;;0.30;;
16626;SDS011;8427;52.204;7.202;2023-12-22T12:08:45;1.25;;;0.68;;
16626;SDS011;8427;52.204;7.202;2023-12-22T12:11:15;2.08;;;0.50;;
16626;SDS011;8427;52.204;7.202;2023-12-22T12:13:43;0.80;;;0.30;;
16626;SDS011;8427;52.204;7.202;2023-12-22T12:16:12;2.00;;;0.40;;
16626;SDS011;8427;52.204;7.202;2023-12-22T12:18:40;1.45;;;0.40;;
16626;SDS011;8427;52.204;7.202;2023-12-22T12:21:09;2.35;;;0.60;;
16626;SDS011;8427;52.204;7.202;2023-12-22T12:23:38;1.85;;;0.57;;
16626;SDS011;8427;52.204;7.202;2023-12-22T12:26:09;2.20;;;0.32;;
16626;SDS011;8427;52.204;7.202;2023-12-22T12:28:41;3.10;;;0.50;;
16626;SDS011;8427;52.204;7.202;2023-12-22T12:31:13;2.55;;;0.50;;
16626;SDS011;8427;52.204;7.202;2023-12-22T12:33:41;2.22;;;0.50;;
16626;SDS011;8427;52.204;7.202;2023-12-22T12:36:10;1.83;;;0.80;;
16626;SDS011;8427;52.204;7.202;2023-12-22T12:38:42;6.93;;;1.10;;
16626;SDS011;8427;52.204;7.202;2023-12-22T12:41:14;4.85;;;1.40;;
16626;SDS011;8427;52.204;7.202;2023-12-22T12:43:43;5.65;;;1.88;;
16626;SDS011;8427;52.204;7.202;2023-12-22T12:46:12;4.70;;;1.50;;
16626;SDS011;8427;52.204;7.202;2023-12-22T12:48:41;2.75;;;1.50;;
16626;SDS011;8427;52.204;7.202;2023-12-22T12:51:09;1.42;;;0.73;;
16626;SDS011;8427;52.204;7.202;2023-12-22T12:53:37;4.13;;;1.67;;
16626;SDS011;8427;52.204;7.202;2023-12-22T12:56:06;2.75;;;1.50;;
16626;SDS011;8427;52.204;7.202;2023-12-22T12:58:35;1.37;;;0.63;;
16626;SDS011;8427;52.204;7.202;2023-12-22T13:01:06;3.08;;;0.70;;
16626;SDS011;8427;52.204;7.202;2023-12-22T13:03:52;5.95;;;0.65;;
16626;SDS011;8427;52.204;7.202;2023-12-22T13:06:21;3.17;;;0.70;;
16626;SDS011;8427;52.204;7.202;2023-12-22T13:08:49;3.63;;;0.90;;
16626;SDS011;8427;52.204;7.202;2023-12-22T13:11:19;2.80;;;0.70;;
16626;SDS011;8427;52.204;7.202;2023-12-22T13:13:50;5.38;;;1.00;;
16626;SDS011;8427;52.204;7.202;2023-12-22T13:16:19;4.25;;;1.45;;
16626;SDS011;8427;52.204;7.202;2023-12-22T13:18:48;4.70;;;1.42;;
16626;SDS011;8427;52.204;7.202;2023-12-22T13:21:17;3.85;;;1.42;;
16626;SDS011;8427;52.204;7.202;2023-12-22T13:23:45;3.63;;;1.02;;
16626;SDS011;8427;52.204;7.202;2023-12-22T13:26:18;1.55;;;0.90;;
16626;SDS011;8427;52.204;7.202;2023-12-22T13:28:47;4.10;;;0.73;;
16626;SDS011;8427;52.204;7.202;2023-12-22T13:31:16;1.38;;;0.55;;
16626;SDS011;8427;52.204;7.202;2023-12-22T13:33:45;2.95;;;0.50;;
16626;SDS011;8427;52.204;7.202;2023-12-22T13:36:13;2.55;;;0.60;;
16626;SDS011;8427;52.204;7.202;2023-12-22T13:38:45;1.85;;;0.35;;
16626;SDS011;8427;52.204;7.202;2023-12-22T13:41:14;7.22;;;0.70;;
16626;SDS011;8427;52.204;7.202;2023-12-22T13:43:43;1.42;;;0.55;;
16626;SDS011;8427;52.204;7.202;2023-12-22T13:46:11;2.33;;;0.77;;
16626;SDS011;8427;52.204;7.202;2023-12-22T13:48:42;2.15;;;0.63;;
16626;SDS011;8427;52.204;7.202;2023-12-22T13:51:10;3.05;;;0.77;;
16626;SDS011;8427;52.204;7.202;2023-12-22T13:53:46;1.52;;;0.60;;
16626;SDS011;8427;52.204;7.202;2023-12-22T13:56:14;2.28;;;0.47;;
16626;SDS011;8427;52.204;7.202;2023-12-22T13:58:46;1.92;;;0.40;;
16626;SDS011;8427;52.204;7.202;2023-12-22T14:01:14;2.65;;;0.40;;
16626;SDS011;8427;52.204;7.202;2023-12-22T14:03:44;2.93;;;0.50;;
16626;SDS011;8427;52.204;7.202;2023-12-22T14:08:40;3.20;;;0.52;;
16626;SDS011;8427;52.204;7.202;2023-12-22T14:11:08;1.75;;;0.40;;
16626;SDS011;8427;52.204;7.202;2023-12-22T14:13:36;5.65;;;1.25;;
16626;SDS011;8427;52.204;7.202;2023-12-22T14:16:07;2.65;;;0.80;;
16626;SDS011;8427;52.204;7.202;2023-12-22T14:18:35;3.00;;;0.70;;
16626;SDS011;8427;52.204;7.202;2023-12-22T14:21:05;2.47;;;0.80;;
16626;SDS011;8427;52.204;7.202;2023-12-22T14:23:33;2.67;;;0.70;;
16626;SDS011;8427;52.204;7.202;2023-12-22T14:26:01;3.35;;;0.73;;
16626;SDS011;8427;52.204;7.202;2023-12-22T14:28:29;3.25;;;1.73;;
16626;SDS011;8427;52.204;7.202;2023-12-22T14:30:57;3.70;;;0.85;;
16626;SDS011;8427;52.204;7.202;2023-12-22T14:33:25;4.63;;;0.60;;
16626;SDS011;8427;52.204;7.202;2023-12-22T14:35:53;2.78;;;0.50;;
16626;SDS011;8427;52.204;7.202;2023-12-22T14:38:22;1.65;;;0.60;;
16626;SDS011;8427;52.204;7.202;2023-12-22T14:40:50;2.30;;;0.50;;
16626;SDS011;8427;52.204;7.202;2023-12-22T14:43:18;4.38;;;0.40;;
16626;SDS011;8427;52.204;7.202;2023-12-22T14:45:46;1.67;;;0.45;;
16626;SDS011;8427;52.204;7.202;2023-12-22T14:48:14;2.83;;;0.35;;
16626;SDS011;8427;52.204;7.202;2023-12-22T14:50:42;2.65;;;0.40;;
16626;SDS011;8427;52.204;7.202;2023-12-22T14:53:11;3.00;;;0.65;;
16626;SDS011;8427;52.204;7.202;2023-12-22T14:55:40;4.60;;;0.50;;
16626;SDS011;8427;52.204;7.202;2023-12-22T14:58:08;3.03;;;0.40;;
16626;SDS011;8427;52.204;7.202;2023-12-22T15:00:37;4.20;;;0.95;;
16626;SDS011;8427;52.204;7.202;2023-12-22T15:03:05;5.90;;;0.75;;
16626;SDS011;8427;52.204;7.202;2023-12-22T15:05:34;4.65;;;0.63;;
16626;SDS011;8427;52.204;7.202;2023-12-22T15:08:03;6.75;;;0.90;;
16626;SDS011;8427;52.204;7.202;2023-12-22T15:10:34;3.78;;;1.00;;
16626;SDS011;8427;52.204;7.202;2023-12-22T15:13:04;3.67;;;0.57;;
16626;SDS011;8427;52.204;7.202;2023-12-22T15:15:32;6.35;;;0.68;;
16626;SDS011;8427;52.204;7.202;2023-12-22T15:18:00;4.07;;;0.77;;
16626;SDS011;8427;52.204;7.202;2023-12-22T15:20:37;7.68;;;1.20;;
16626;SDS011;8427;52.204;7.202;2023-12-22T15:23:05;7.43;;;0.90;;
16626;SDS011;8427;52.204;7.202;2023-12-22T15:25:33;3.58;;;0.82;;
16626;SDS011;8427;52.204;7.202;2023-12-22T15:28:01;5.00;;;0.82;;
16626;SDS011;8427;52.204;7.202;2023-12-22T15:30:31;1.65;;;0.50;;
16626;SDS011;8427;52.204;7.202;2023-12-22T15:32:58;3.20;;;0.60;;
16626;SDS011;8427;52.204;7.202;2023-12-22T15:35:26;1.33;;;0.50;;
16626;SDS011;8427;52.204;7.202;2023-12-22T15:37:54;1.75;;;0.40;;
16626;SDS011;8427;52.204;7.202;2023-12-22T15:40:23;3.10;;;0.70;;